Time;durP1;ratioP1;P1;durP2;ratioP2;P2;SDS_P1;SDS_P2;PMS_P1;PMS_P2;Temp;Humidity;BMP_temperature;BMP_pressure;BME280_temperature;BME280_humidity;BME280_pressure;Samples;Min_cycle;Max_cycle;Signal;HPM_P1;HPM_P2
2021/09/11 00:00:20;;;;;;;3.88;2.75;;;;;;;;;;4966676;28;20793;-78
2021/09/11 00:02:46;;;;;;;2.60;2.40;;;;;;;;;;4975006;28;20183;-78
2021/09/11 00:05:13;;;;;;;5.80;3.00;;;;;;;;;;4968636;28;20203;-78
2021/09/11 00:07:39;;;;;;;4.60;2.78;;;;;;;;;;4960727;28;20195;-78
2021/09/11 00:10:06;;;;;;;3.10;2.80;;;;;;;;;;4966855;28;20693;-78
2021/09/11 00:12:32;;;;;;;6.47;3.33;;;;;;;;;;4964984;28;20180;-77
2021/09/11 00:14:58;;;;;;;2.20;2.00;;;;;;;;;;4965071;28;20192;-78
2021/09/11 00:17:24;;;;;;;3.13;2.47;;;;;;;;;;4967293;28;20173;-78
2021/09/11 00:19:50;;;;;;;2.37;2.17;;;;;;;;;;4966163;28;20483;-78
2021/09/11 00:22:16;;;;;;;2.60;2.40;;;;;;;;;;4979534;28;20515;-78
2021/09/11 00:24:42;;;;;;;3.13;2.55;;;;;;;;;;4962179;28;20555;-78
2021/09/11 00:27:08;;;;;;;2.70;2.50;;;;;;;;;;4967998;28;20253;-78
2021/09/11 00:29:37;;;;;;;2.37;2.17;;;;;;;;;;4965820;28;20443;-77
2021/09/11 00:32:03;;;;;;;2.72;2.33;;;;;;;;;;4967376;28;20435;-78
2021/09/11 00:34:29;;;;;;;2.80;2.60;;;;;;;;;;4976932;28;21633;-78
2021/09/11 00:36:55;;;;;;;3.23;2.70;;;;;;;;;;4979064;28;20208;-78
2021/09/11 00:39:23;;;;;;;2.57;2.37;;;;;;;;;;4976046;28;20449;-78
2021/09/11 00:41:49;;;;;;;3.10;2.45;;;;;;;;;;4972851;28;20421;-79
2021/09/11 00:44:15;;;;;;;4.10;2.38;;;;;;;;;;4963747;28;20191;-78
2021/09/11 00:46:41;;;;;;;2.83;2.30;;;;;;;;;;4968278;28;20196;-79
2021/09/11 00:49:07;;;;;;;2.35;2.13;;;;;;;;;;4982533;28;20497;-78
2021/09/11 00:51:33;;;;;;;2.30;2.10;;;;;;;;;;4981430;28;20221;-79
2021/09/11 00:54:00;;;;;;;1.90;1.80;;;;;;;;;;4960489;28;20196;-78
2021/09/11 00:56:26;;;;;;;2.75;2.17;;;;;;;;;;4970594;28;20471;-78
2021/09/11 00:58:52;;;;;;;2.15;1.90;;;;;;;;;;4962122;28;20229;-78
2021/09/11 01:01:18;;;;;;;2.40;1.88;;;;;;;;;;4965494;28;20220;-78
2021/09/11 01:03:44;;;;;;;3.40;2.10;;;;;;;;;;4961010;28;20184;-78
2021/09/11 01:06:10;;;;;;;2.45;2.25;;;;;;;;;;4966902;28;20452;-78
2021/09/11 01:08:38;;;;;;;2.63;2.20;;;;;;;;;;4963627;28;20208;-78
2021/09/11 01:11:04;;;;;;;2.53;2.33;;;;;;;;;;4968551;28;20187;-78
2021/09/11 01:13:30;;;;;;;3.87;2.07;;;;;;;;;;4963236;28;20188;-78
2021/09/11 01:15:57;;;;;;;2.92;2.63;;;;;;;;;;4964683;28;20538;-78
2021/09/11 01:18:24;;;;;;;2.40;2.20;;;;;;;;;;4986259;28;20193;-78
2021/09/11 01:20:50;;;;;;;2.80;2.20;;;;;;;;;;4982475;28;20187;-78
2021/09/11 01:23:16;;;;;;;2.93;1.97;;;;;;;;;;4963448;29;20188;-78
2021/09/11 01:25:42;;;;;;;3.03;2.40;;;;;;;;;;4965707;28;20466;-78
2021/09/11 01:28:08;;;;;;;1.83;1.73;;;;;;;;;;4964751;28;20192;-78
2021/09/11 01:30:34;;;;;;;3.05;1.60;;;;;;;;;;4968452;28;20447;-78
2021/09/11 01:33:00;;;;;;;2.80;2.50;;;;;;;;;;4990402;28;20192;-78
2021/09/11 01:35:26;;;;;;;2.72;2.22;;;;;;;;;;4972533;28;20470;-78
2021/09/11 01:37:52;;;;;;;3.10;2.80;;;;;;;;;;4964547;28;20208;-78
2021/09/11 01:40:18;;;;;;;2.30;2.10;;;;;;;;;;4965673;28;20436;-78
2021/09/11 01:42:44;;;;;;;2.83;2.20;;;;;;;;;;4972429;28;20360;-79
2021/09/11 01:45:14;;;;;;;4.60;2.30;;;;;;;;;;4968708;28;20658;-79
2021/09/11 01:47:40;;;;;;;3.00;2.70;;;;;;;;;;4980952;28;20184;-78
2021/09/11 01:50:07;;;;;;;2.40;2.10;;;;;;;;;;4968426;28;20183;-79
2021/09/11 01:52:33;;;;;;;1.80;1.70;;;;;;;;;;4965268;28;20427;-79
2021/09/11 01:54:59;;;;;;;2.85;2.45;;;;;;;;;;4967997;28;20446;-78
2021/09/11 01:57:25;;;;;;;2.30;2.10;;;;;;;;;;4984539;28;20215;-79
2021/09/11 01:59:51;;;;;;;2.43;2.23;;;;;;;;;;4982759;28;20714;-78
2021/09/11 02:02:17;;;;;;;1.83;1.73;;;;;;;;;;4969649;28;20461;-78
2021/09/11 02:04:43;;;;;;;2.10;1.80;;;;;;;;;;4965437;28;20499;-79
2021/09/11 02:07:09;;;;;;;2.22;2.03;;;;;;;;;;4968262;28;20212;-78
2021/09/11 02:09:36;;;;;;;2.40;2.20;;;;;;;;;;4980753;28;20191;-78
2021/09/11 02:12:02;;;;;;;2.10;1.90;;;;;;;;;;4969828;28;20443;-79
2021/09/11 02:14:28;;;;;;;1.77;1.67;;;;;;;;;;4972640;28;20188;-78
2021/09/11 02:16:54;;;;;;;3.00;2.10;;;;;;;;;;4971751;28;20282;-78
2021/09/11 02:19:20;;;;;;;3.78;2.33;;;;;;;;;;4969268;28;20448;-78
2021/09/11 02:21:46;;;;;;;3.70;2.30;;;;;;;;;;4967361;28;20579;-79
2021/09/11 02:24:12;;;;;;;2.20;2.10;;;;;;;;;;4964903;28;20519;-78
2021/09/11 02:26:38;;;;;;;3.45;2.35;;;;;;;;;;4969840;28;20447;-78
2021/09/11 02:29:04;;;;;;;2.50;2.30;;;;;;;;;;4960059;28;20184;-79
2021/09/11 02:31:30;;;;;;;2.08;1.98;;;;;;;;;;4967004;28;20511;-79
2021/09/11 02:33:56;;;;;;;2.40;2.22;;;;;;;;;;4962375;28;20188;-78
2021/09/11 02:36:22;;;;;;;2.77;2.43;;;;;;;;;;4968568;28;20219;-79
2021/09/11 02:38:48;;;;;;;2.55;2.28;;;;;;;;;;4965331;28;20423;-79
2021/09/11 02:41:15;;;;;;;2.85;1.98;;;;;;;;;;4973528;28;20539;-79
2021/09/11 02:43:41;;;;;;;1.85;1.75;;;;;;;;;;4964313;28;20252;-79
2021/09/11 02:46:07;;;;;;;2.83;2.00;;;;;;;;;;4982049;28;20185;-79
2021/09/11 02:48:33;;;;;;;3.05;2.40;;;;;;;;;;4963226;28;20231;-78
2021/09/11 02:51:00;;;;;;;2.93;2.10;;;;;;;;;;4983748;28;20279;-78
2021/09/11 02:53:26;;;;;;;2.38;2.17;;;;;;;;;;4964597;28;20810;-78
2021/09/11 02:55:52;;;;;;;2.47;2.27;;;;;;;;;;4963697;28;20208;-81
2021/09/11 02:58:22;;;;;;;2.00;1.87;;;;;;;;;;4962686;28;20448;-81
2021/09/11 03:00:48;;;;;;;3.15;2.45;;;;;;;;;;4963232;28;20463;-81
2021/09/11 03:03:14;;;;;;;2.45;2.25;;;;;;;;;;4962485;28;20466;-79
2021/09/11 03:05:40;;;;;;;1.97;1.77;;;;;;;;;;4965617;28;20176;-78
2021/09/11 03:08:06;;;;;;;2.20;1.73;;;;;;;;;;4966370;28;20428;-79
2021/09/11 03:10:32;;;;;;;4.10;2.10;;;;;;;;;;4963069;28;20502;-78
2021/09/11 03:12:58;;;;;;;4.07;2.60;;;;;;;;;;4961520;28;20447;-79
2021/09/11 03:15:24;;;;;;;2.10;1.90;;;;;;;;;;4961873;28;20216;-79
2021/09/11 03:17:50;;;;;;;2.47;1.83;;;;;;;;;;4963961;28;20427;-78
2021/09/11 03:20:16;;;;;;;2.90;2.60;;;;;;;;;;4969134;28;20176;-79
2021/09/11 03:22:42;;;;;;;2.33;2.13;;;;;;;;;;4962863;28;20448;-79
2021/09/11 03:25:08;;;;;;;1.98;1.80;;;;;;;;;;4962812;28;21000;-79
2021/09/11 03:27:34;;;;;;;3.35;1.90;;;;;;;;;;4961191;28;20188;-78
2021/09/11 03:30:00;;;;;;;2.20;1.70;;;;;;;;;;4963191;28;20188;-79
2021/09/11 03:32:26;;;;;;;3.73;2.00;;;;;;;;;;4965811;29;20420;-78
2021/09/11 03:34:52;;;;;;;4.30;1.97;;;;;;;;;;4963164;28;20471;-79
2021/09/11 03:37:18;;;;;;;2.23;1.80;;;;;;;;;;4962399;28;20475;-79
2021/09/11 03:39:45;;;;;;;2.25;2.00;;;;;;;;;;4962163;28;20491;-78
2021/09/11 03:42:11;;;;;;;2.80;2.20;;;;;;;;;;4977171;28;20181;-79
2021/09/11 03:44:37;;;;;;;2.13;1.70;;;;;;;;;;4980372;28;20416;-78
2021/09/11 03:47:03;;;;;;;2.95;2.42;;;;;;;;;;4965034;28;20503;-78
2021/09/11 03:49:29;;;;;;;1.88;1.77;;;;;;;;;;4962240;28;20756;-79
2021/09/11 03:51:55;;;;;;;3.73;2.27;;;;;;;;;;4960991;28;20196;-78
2021/09/11 03:54:21;;;;;;;3.37;2.17;;;;;;;;;;4961006;28;20467;-79
2021/09/11 03:56:47;;;;;;;2.70;2.23;;;;;;;;;;4979174;28;20455;-79
2021/09/11 03:59:13;;;;;;;2.70;2.20;;;;;;;;;;4963319;29;20457;-79
2021/09/11 04:01:39;;;;;;;1.90;1.80;;;;;;;;;;4961714;28;21106;-79
2021/09/11 04:04:05;;;;;;;2.85;2.03;;;;;;;;;;4968135;28;20742;-78
2021/09/11 04:06:31;;;;;;;2.03;1.83;;;;;;;;;;4962654;28;20371;-79
2021/09/11 04:08:57;;;;;;;2.53;1.88;;;;;;;;;;4976718;28;20457;-78
2021/09/11 04:11:23;;;;;;;3.83;2.40;;;;;;;;;;4964996;29;20180;-79
2021/09/11 04:13:49;;;;;;;1.98;1.85;;;;;;;;;;4962170;28;20471;-79
2021/09/11 04:16:15;;;;;;;4.45;2.35;;;;;;;;;;4962540;28;20732;-79
2021/09/11 04:18:41;;;;;;;2.67;2.17;;;;;;;;;;4960462;28;20184;-79
2021/09/11 04:21:08;;;;;;;2.67;2.20;;;;;;;;;;4976124;28;20485;-79
2021/09/11 04:23:34;;;;;;;2.38;2.10;;;;;;;;;;4979406;28;20439;-78
2021/09/11 04:26:00;;;;;;;2.73;1.80;;;;;;;;;;4963941;28;20177;-79
2021/09/11 04:28:26;;;;;;;2.00;1.77;;;;;;;;;;4961750;28;20541;-79
2021/09/11 04:30:52;;;;;;;2.60;2.17;;;;;;;;;;4976472;28;20895;-79
2021/09/11 04:33:18;;;;;;;1.70;1.60;;;;;;;;;;4961872;28;21020;-79
2021/09/11 04:35:44;;;;;;;2.40;2.20;;;;;;;;;;4963980;28;20275;-79
2021/09/11 04:38:10;;;;;;;3.25;2.30;;;;;;;;;;4963434;28;20183;-79
2021/09/11 04:40:36;;;;;;;2.20;1.90;;;;;;;;;;4961495;28;20239;-79
2021/09/11 04:43:03;;;;;;;2.05;1.85;;;;;;;;;;4978538;28;20188;-79
2021/09/11 04:45:30;;;;;;;2.10;1.88;;;;;;;;;;4963798;28;20177;-79
2021/09/11 04:47:56;;;;;;;5.38;1.70;;;;;;;;;;4952508;28;20188;-78
2021/09/11 04:50:22;;;;;;;2.23;2.07;;;;;;;;;;4964608;29;20195;-79
2021/09/11 04:52:48;;;;;;;4.25;1.98;;;;;;;;;;4961278;28;20432;-77
2021/09/11 04:55:14;;;;;;;2.23;2.03;;;;;;;;;;4961593;28;20565;-78
2021/09/11 04:57:40;;;;;;;2.25;2.00;;;;;;;;;;4951485;29;20428;-79
2021/09/11 05:00:06;;;;;;;1.70;1.60;;;;;;;;;;4960334;28;20221;-79
2021/09/11 05:02:32;;;;;;;3.10;1.95;;;;;;;;;;4964713;28;20427;-78
2021/09/11 05:04:58;;;;;;;2.35;1.80;;;;;;;;;;4978485;28;20203;-78
2021/09/11 05:07:24;;;;;;;4.30;1.80;;;;;;;;;;4965640;28;20192;-79
2021/09/11 05:09:51;;;;;;;3.00;1.77;;;;;;;;;;4964650;28;20447;-79
2021/09/11 05:12:17;;;;;;;2.65;2.22;;;;;;;;;;4965219;28;20436;-79
2021/09/11 05:14:43;;;;;;;3.90;2.10;;;;;;;;;;4965498;29;20228;-79
2021/09/11 05:17:09;;;;;;;2.47;1.90;;;;;;;;;;4965337;28;20318;-79
2021/09/11 05:19:35;;;;;;;1.60;1.43;;;;;;;;;;4963671;28;20208;-79
2021/09/11 05:22:01;;;;;;;3.00;2.20;;;;;;;;;;4964964;28;21159;-78
2021/09/11 05:24:27;;;;;;;4.25;1.80;;;;;;;;;;4964342;28;20447;-79
2021/09/11 05:26:53;;;;;;;1.88;1.75;;;;;;;;;;4981465;28;20577;-79
2021/09/11 05:29:19;;;;;;;2.65;2.00;;;;;;;;;;4972354;28;20180;-78
2021/09/11 05:31:45;;;;;;;3.85;2.70;;;;;;;;;;4963808;28;20188;-79
2021/09/11 05:34:11;;;;;;;4.70;2.20;;;;;;;;;;4965131;28;20181;-79
2021/09/11 05:36:37;;;;;;;2.95;2.28;;;;;;;;;;4963178;28;20295;-78
2021/09/11 05:39:04;;;;;;;2.40;2.20;;;;;;;;;;4963776;28;20192;-79
2021/09/11 05:41:30;;;;;;;2.22;2.00;;;;;;;;;;4968731;28;20420;-79
2021/09/11 05:43:56;;;;;;;3.28;2.08;;;;;;;;;;4964751;28;20212;-79
2021/09/11 05:46:22;;;;;;;2.10;1.80;;;;;;;;;;4964709;28;20729;-79
2021/09/11 05:48:48;;;;;;;3.50;2.30;;;;;;;;;;4964025;28;20218;-78
2021/09/11 05:51:14;;;;;;;4.00;3.03;;;;;;;;;;4964497;28;20447;-78
2021/09/11 05:53:40;;;;;;;3.23;2.63;;;;;;;;;;4966318;28;20428;-79
2021/09/11 05:56:06;;;;;;;2.20;2.00;;;;;;;;;;4964804;28;20934;-79
2021/09/11 05:58:31;;;;;;;2.73;2.30;;;;;;;;;;4961374;28;20196;-79
2021/09/11 06:00:57;;;;;;;2.10;1.83;;;;;;;;;;4980378;28;20478;-79
2021/09/11 06:03:24;;;;;;;2.50;2.30;;;;;;;;;;4964807;28;20534;-79
2021/09/11 06:05:50;;;;;;;2.20;2.00;;;;;;;;;;4980827;28;20427;-78
2021/09/11 06:08:16;;;;;;;2.42;1.88;;;;;;;;;;4964530;28;20695;-79
2021/09/11 06:10:42;;;;;;;2.22;2.00;;;;;;;;;;4958061;28;20196;-78
2021/09/11 06:13:08;;;;;;;2.65;2.08;;;;;;;;;;4964345;28;20240;-78
2021/09/11 06:15:34;;;;;;;4.38;2.08;;;;;;;;;;4964087;28;20219;-78
2021/09/11 06:18:00;;;;;;;2.47;1.90;;;;;;;;;;4964697;28;20216;-78
2021/09/11 06:20:27;;;;;;;3.03;2.73;;;;;;;;;;4981527;28;20177;-79
2021/09/11 06:22:53;;;;;;;3.95;2.05;;;;;;;;;;4963746;28;20425;-79
2021/09/11 06:25:19;;;;;;;2.25;1.83;;;;;;;;;;4960520;28;20192;-78
2021/09/11 06:27:45;;;;;;;2.65;2.20;;;;;;;;;;4962426;28;20218;-77
2021/09/11 06:30:12;;;;;;;2.47;2.13;;;;;;;;;;4965166;28;20184;-78
2021/09/11 06:32:38;;;;;;;2.42;2.22;;;;;;;;;;4966289;28;20515;-77
2021/09/11 06:35:04;;;;;;;2.30;1.65;;;;;;;;;;4964706;28;20590;-78
2021/09/11 06:37:30;;;;;;;2.58;2.00;;;;;;;;;;4978629;28;20219;-78
2021/09/11 06:39:56;;;;;;;2.70;2.50;;;;;;;;;;4963944;28;20185;-78
2021/09/11 06:42:22;;;;;;;2.20;2.03;;;;;;;;;;4979626;28;20464;-78
2021/09/11 06:44:49;;;;;;;3.53;1.90;;;;;;;;;;4964356;28;20427;-78
2021/09/11 06:47:15;;;;;;;2.25;2.05;;;;;;;;;;4964946;28;20195;-79
2021/09/11 06:49:41;;;;;;;2.72;2.30;;;;;;;;;;4963880;28;20188;-78
2021/09/11 06:52:08;;;;;;;6.05;2.50;;;;;;;;;;4979334;28;20191;-78
2021/09/11 06:54:34;;;;;;;1.75;1.65;;;;;;;;;;4977342;28;20650;-79
2021/09/11 06:57:00;;;;;;;1.85;1.63;;;;;;;;;;4964141;28;20750;-78
2021/09/11 06:59:26;;;;;;;6.27;2.57;;;;;;;;;;4965042;28;20197;-77
2021/09/11 07:01:52;;;;;;;2.95;2.00;;;;;;;;;;4964196;28;20484;-77
2021/09/11 07:04:18;;;;;;;4.37;2.27;;;;;;;;;;4964572;28;20276;-78
2021/09/11 07:06:44;;;;;;;2.17;1.70;;;;;;;;;;4964977;28;20523;-78
2021/09/11 07:09:10;;;;;;;2.15;1.90;;;;;;;;;;4978862;28;20817;-78
2021/09/11 07:11:36;;;;;;;2.25;2.05;;;;;;;;;;4964163;28;20179;-78
2021/09/11 07:14:02;;;;;;;2.03;1.67;;;;;;;;;;4964579;29;20188;-78
2021/09/11 07:16:28;;;;;;;2.00;1.73;;;;;;;;;;4977082;28;20220;-78
2021/09/11 07:18:54;;;;;;;1.83;1.70;;;;;;;;;;4976944;28;20196;-78
2021/09/11 07:21:20;;;;;;;3.35;1.38;;;;;;;;;;4962217;28;20189;-78
2021/09/11 07:23:46;;;;;;;2.80;1.90;;;;;;;;;;4964801;28;20200;-78
2021/09/11 07:26:18;;;;;;;6.38;1.80;;;;;;;;;;4963687;28;20492;-78
2021/09/11 07:28:44;;;;;;;3.10;2.08;;;;;;;;;;4961647;28;20192;-77
2021/09/11 07:31:10;;;;;;;3.10;1.40;;;;;;;;;;4961211;28;20188;-78
2021/09/11 07:33:36;;;;;;;4.17;2.17;;;;;;;;;;4976682;28;20444;-78
2021/09/11 07:36:02;;;;;;;2.53;2.15;;;;;;;;;;4963075;28;20833;-78
2021/09/11 07:38:28;;;;;;;1.60;1.50;;;;;;;;;;4971526;28;20185;-78
2021/09/11 07:40:54;;;;;;;3.90;1.80;;;;;;;;;;4959979;28;20443;-79
2021/09/11 07:43:20;;;;;;;4.63;2.10;;;;;;;;;;4961546;28;20443;-79
2021/09/11 07:45:46;;;;;;;1.83;1.73;;;;;;;;;;4962735;28;20451;-78
2021/09/11 07:48:12;;;;;;;3.50;1.55;;;;;;;;;;4960880;28;20460;-77
2021/09/11 07:50:38;;;;;;;3.55;1.80;;;;;;;;;;4964206;28;20187;-77
2021/09/11 07:53:04;;;;;;;2.90;1.80;;;;;;;;;;4963725;28;20180;-78
2021/09/11 07:55:31;;;;;;;2.97;1.50;;;;;;;;;;4978379;28;20471;-77
2021/09/11 07:57:57;;;;;;;8.85;2.08;;;;;;;;;;4963133;28;20200;-78
2021/09/11 08:00:23;;;;;;;2.10;1.70;;;;;;;;;;4960482;28;20223;-79
2021/09/11 08:02:49;;;;;;;2.95;1.65;;;;;;;;;;4963650;28;20248;-79
2021/09/11 08:05:15;;;;;;;1.70;1.60;;;;;;;;;;4964582;29;20180;-79
2021/09/11 08:07:41;;;;;;;3.05;2.00;;;;;;;;;;4959927;28;20572;-78
2021/09/11 08:10:07;;;;;;;2.30;1.57;;;;;;;;;;4962774;28;20189;-78
2021/09/11 08:12:33;;;;;;;2.67;1.00;;;;;;;;;;4963706;28;20432;-80
2021/09/11 08:14:59;;;;;;;7.15;1.40;;;;;;;;;;4977787;28;20219;-80
2021/09/11 08:17:25;;;;;;;2.90;1.10;;;;;;;;;;4964999;28;20204;-79
2021/09/11 08:19:51;;;;;;;2.90;1.50;;;;;;;;;;4963307;28;20415;-79
2021/09/11 08:22:18;;;;;;;2.45;1.38;;;;;;;;;;4977882;28;20444;-79
2021/09/11 08:24:44;;;;;;;2.60;1.30;;;;;;;;;;4962913;28;20197;-80
2021/09/11 08:27:10;;;;;;;3.80;1.10;;;;;;;;;;4975997;28;20189;-81
2021/09/11 08:29:40;;;;;;;1.88;1.30;;;;;;;;;;4977980;28;20495;-87
2021/09/11 08:32:06;;;;;;;1.92;1.42;;;;;;;;;;4964488;28;20224;-80
2021/09/11 08:34:32;;;;;;;2.10;1.40;;;;;;;;;;4978675;28;20228;-78
2021/09/11 08:36:59;;;;;;;2.67;1.10;;;;;;;;;;4978046;28;20205;-80
2021/09/11 08:39:26;;;;;;;4.50;1.67;;;;;;;;;;4965361;28;20916;-79
2021/09/11 08:41:54;;;;;;;2.38;1.17;;;;;;;;;;4984514;28;20202;-86
2021/09/11 08:44:22;;;;;;;3.75;1.20;;;;;;;;;;4970075;28;20257;-81
2021/09/11 08:46:48;;;;;;;2.90;1.30;;;;;;;;;;4968031;28;20183;-80
2021/09/11 08:49:15;;;;;;;1.30;1.10;;;;;;;;;;4968886;28;20374;-79
2021/09/11 08:51:41;;;;;;;3.20;1.30;;;;;;;;;;4967912;28;20271;-78
2021/09/11 08:54:07;;;;;;;1.30;0.93;;;;;;;;;;4968274;28;20188;-78
2021/09/11 08:56:44;;;;;;;4.05;1.55;;;;;;;;;;4971022;28;20434;-78
2021/09/11 08:59:11;;;;;;;3.17;0.80;;;;;;;;;;4964966;29;20185;-83
2021/09/11 09:01:37;;;;;;;1.45;0.90;;;;;;;;;;4967164;29;20665;-88
2021/09/11 09:04:03;;;;;;;3.70;1.00;;;;;;;;;;4967463;28;21690;-80
2021/09/11 09:06:33;;;;;;;2.88;1.02;;;;;;;;;;4967134;28;20661;-79
2021/09/11 09:09:07;;;;;;;0.93;0.80;;;;;;;;;;4968376;28;20194;-82
2021/09/11 09:11:34;;;;;;;1.60;1.25;;;;;;;;;;4967906;28;20217;-81
2021/09/11 09:14:02;;;;;;;5.28;1.23;;;;;;;;;;4985506;28;20189;-81
2021/09/11 09:16:30;;;;;;;4.68;1.40;;;;;;;;;;4966849;28;20225;-82
2021/09/11 09:18:56;;;;;;;1.63;1.20;;;;;;;;;;4982731;28;20191;-79
2021/09/11 09:21:32;;;;;;;1.38;1.05;;;;;;;;;;4968309;28;20185;-84
2021/09/11 09:24:03;;;;;;;1.55;1.10;;;;;;;;;;4968689;28;20191;-79
2021/09/11 09:26:29;;;;;;;1.27;0.90;;;;;;;;;;4971725;28;20184;-83
2021/09/11 09:29:09;;;;;;;1.50;1.27;;;;;;;;;;4967098;28;20260;-80
2021/09/11 09:31:36;;;;;;;1.35;1.17;;;;;;;;;;4968154;28;20190;-80
2021/09/11 09:34:02;;;;;;;3.22;1.15;;;;;;;;;;4967799;28;20197;-84
2021/09/11 09:36:38;;;;;;;1.40;1.10;;;;;;;;;;4968192;28;20208;-79
2021/09/11 09:39:06;;;;;;;1.65;1.20;;;;;;;;;;4963146;29;20304;-82
2021/09/11 09:41:46;;;;;;;2.17;1.33;;;;;;;;;;4986671;28;20182;-85
2021/09/11 09:44:13;;;;;;;2.72;1.10;;;;;;;;;;4969273;29;20181;-81
2021/09/11 09:46:41;;;;;;;6.95;1.80;;;;;;;;;;4967628;28;20996;-82
2021/09/11 09:49:07;;;;;;;2.38;1.05;;;;;;;;;;4966647;28;20185;-88
2021/09/11 09:51:34;;;;;;;3.85;1.23;;;;;;;;;;4964548;28;20189;-87
2021/09/11 09:54:01;;;;;;;1.45;1.35;;;;;;;;;;4965315;28;20249;-80
2021/09/11 09:56:32;;;;;;;1.45;1.10;;;;;;;;;;4973194;28;20314;-80
2021/09/11 09:58:58;;;;;;;1.33;0.90;;;;;;;;;;4963353;28;20192;-84
2021/09/11 10:01:24;;;;;;;3.30;1.52;;;;;;;;;;4963170;28;20297;-82
2021/09/11 10:03:51;;;;;;;1.45;1.33;;;;;;;;;;4979403;28;20182;-80
2021/09/11 10:06:16;;;;;;;2.28;1.10;;;;;;;;;;4964397;28;20243;-82
2021/09/11 10:08:48;;;;;;;1.70;1.27;;;;;;;;;;4981484;28;20189;-86
2021/09/11 10:11:14;;;;;;;2.80;1.00;;;;;;;;;;4965992;29;20942;-81
2021/09/11 10:13:57;;;;;;;1.63;1.10;;;;;;;;;;4964263;28;20198;-80
2021/09/11 10:16:29;;;;;;;2.20;1.35;;;;;;;;;;4964117;28;20208;-80
2021/09/11 10:18:56;;;;;;;1.85;1.20;;;;;;;;;;4963124;28;20196;-87
2021/09/11 10:21:40;;;;;;;2.47;1.13;;;;;;;;;;4979475;28;20186;-82
2021/09/11 10:24:17;;;;;;;4.22;1.30;;;;;;;;;;4959295;29;20184;-86
2021/09/11 10:26:50;;;;;;;1.75;1.10;;;;;;;;;;4981340;28;20176;-82
2021/09/11 10:29:35;;;;;;;1.40;1.20;;;;;;;;;;4969311;28;20202;-86
2021/09/11 10:32:04;;;;;;;1.52;1.20;;;;;;;;;;4965488;28;20191;-81
2021/09/11 10:34:44;;;;;;;1.25;1.15;;;;;;;;;;4964088;28;20654;-79
2021/09/11 10:37:10;;;;;;;2.67;1.53;;;;;;;;;;4963634;28;20700;-82
2021/09/11 10:39:36;;;;;;;2.35;1.60;;;;;;;;;;4978160;28;20439;-89
2021/09/11 10:42:06;;;;;;;3.33;1.30;;;;;;;;;;4964053;28;20657;-83
2021/09/11 10:44:32;;;;;;;3.20;1.13;;;;;;;;;;4962842;28;20176;-81
2021/09/11 10:46:58;;;;;;;1.40;1.30;;;;;;;;;;4959419;28;20489;-79
2021/09/11 10:49:25;;;;;;;3.47;1.70;;;;;;;;;;4958994;29;20456;-85
2021/09/11 10:52:06;;;;;;;2.90;1.80;;;;;;;;;;4963262;28;20494;-86
2021/09/11 10:54:33;;;;;;;1.53;1.43;;;;;;;;;;4963398;28;20474;-87
2021/09/11 10:57:00;;;;;;;2.07;1.90;;;;;;;;;;4966606;28;20459;-88
2021/09/11 10:59:26;;;;;;;2.90;1.10;;;;;;;;;;4971634;28;21047;-85
2021/09/11 11:01:55;;;;;;;1.27;1.17;;;;;;;;;;4961047;28;20464;-81
2021/09/11 11:04:31;;;;;;;1.73;1.43;;;;;;;;;;4961369;28;20468;-81
2021/09/11 11:07:01;;;;;;;1.90;1.10;;;;;;;;;;4963076;28;20517;-90
2021/09/11 11:09:28;;;;;;;3.40;1.60;;;;;;;;;;4977939;28;20444;-80
2021/09/11 11:11:55;;;;;;;1.63;1.37;;;;;;;;;;4964746;28;20417;-87
2021/09/11 11:14:22;;;;;;;2.27;1.13;;;;;;;;;;4966309;28;20507;-86
2021/09/11 11:16:50;;;;;;;1.80;1.30;;;;;;;;;;4961930;28;20478;-84
2021/09/11 11:19:43;;;;;;;1.97;1.10;;;;;;;;;;4962894;28;21008;-81
2021/09/11 11:22:10;;;;;;;1.50;1.40;;;;;;;;;;4963002;29;20452;-82
2021/09/11 11:24:37;;;;;;;2.33;1.13;;;;;;;;;;4977357;28;20771;-81
2021/09/11 11:27:04;;;;;;;2.43;1.17;;;;;;;;;;4972936;28;20467;-82
2021/09/11 11:29:30;;;;;;;2.10;1.07;;;;;;;;;;4961344;28;20406;-80
2021/09/11 11:31:57;;;;;;;1.83;1.20;;;;;;;;;;4962876;29;20900;-82
2021/09/11 11:34:23;;;;;;;1.20;1.10;;;;;;;;;;4962821;28;20427;-80
2021/09/11 11:36:56;;;;;;;1.00;0.90;;;;;;;;;;4960786;28;20450;-81
2021/09/11 11:39:24;;;;;;;1.00;0.87;;;;;;;;;;4960589;28;20428;-80
2021/09/11 11:41:54;;;;;;;2.70;1.40;;;;;;;;;;4964342;28;20443;-80
2021/09/11 11:44:20;;;;;;;3.97;1.20;;;;;;;;;;4965772;29;20391;-83
2021/09/11 11:46:46;;;;;;;1.77;1.10;;;;;;;;;;4962437;28;20439;-80
2021/09/11 11:49:12;;;;;;;1.20;1.03;;;;;;;;;;4961232;28;20555;-82
2021/09/11 11:51:38;;;;;;;1.40;1.30;;;;;;;;;;4970625;28;20419;-81
2021/09/11 11:54:05;;;;;;;1.60;1.17;;;;;;;;;;4962160;28;20418;-81
2021/09/11 11:56:31;;;;;;;2.33;1.57;;;;;;;;;;4980927;28;20460;-82
2021/09/11 11:59:00;;;;;;;1.83;1.67;;;;;;;;;;4961961;29;20493;-80
2021/09/11 12:01:30;;;;;;;10.33;1.63;;;;;;;;;;4962198;29;20451;-80
2021/09/11 12:03:56;;;;;;;3.40;1.60;;;;;;;;;;4960673;29;20831;-83
2021/09/11 12:06:22;;;;;;;1.40;1.30;;;;;;;;;;4962235;28;20456;-80
2021/09/11 12:08:49;;;;;;;3.47;1.47;;;;;;;;;;4964261;28;20398;-81
2021/09/11 12:11:18;;;;;;;2.00;1.27;;;;;;;;;;4962997;28;20464;-81
2021/09/11 12:13:45;;;;;;;1.53;1.13;;;;;;;;;;4958633;28;20509;-79
2021/09/11 12:16:11;;;;;;;2.10;1.73;;;;;;;;;;4961648;28;20832;-80
2021/09/11 12:18:37;;;;;;;1.33;1.20;;;;;;;;;;4964228;28;20417;-80
2021/09/11 12:21:07;;;;;;;4.43;1.40;;;;;;;;;;4963308;28;20494;-83
2021/09/11 12:23:34;;;;;;;1.80;1.50;;;;;;;;;;4961336;28;20396;-81
2021/09/11 12:26:06;;;;;;;3.17;1.40;;;;;;;;;;4962654;28;20403;-81
2021/09/11 12:28:32;;;;;;;1.50;1.40;;;;;;;;;;4961706;28;20415;-81
2021/09/11 12:30:59;;;;;;;1.37;1.27;;;;;;;;;;4975719;28;20443;-84
2021/09/11 12:33:25;;;;;;;1.70;1.03;;;;;;;;;;4961869;28;20476;-83
2021/09/11 12:35:51;;;;;;;1.37;1.17;;;;;;;;;;4978702;28;20601;-83
2021/09/11 12:38:17;;;;;;;3.83;1.43;;;;;;;;;;4961710;28;20410;-81
2021/09/11 12:40:43;;;;;;;1.20;1.10;;;;;;;;;;4978241;28;20482;-81
2021/09/11 12:43:11;;;;;;;1.50;1.40;;;;;;;;;;4961875;28;20449;-85
2021/09/11 12:45:39;;;;;;;3.57;1.50;;;;;;;;;;4961922;28;20483;-83
2021/09/11 12:48:06;;;;;;;1.83;1.40;;;;;;;;;;4961552;28;20507;-87
2021/09/11 12:50:32;;;;;;;0.80;0.80;;;;;;;;;;4965685;28;20427;-82
2021/09/11 12:52:58;;;;;;;1.77;1.27;;;;;;;;;;4973058;28;20415;-80
2021/09/11 12:55:26;;;;;;;1.50;1.00;;;;;;;;;;4956861;29;20458;-81
2021/09/11 12:57:52;;;;;;;1.30;0.90;;;;;;;;;;4960965;28;20432;-84
2021/09/11 13:00:18;;;;;;;2.20;0.90;;;;;;;;;;4961543;28;20475;-86
2021/09/11 13:02:44;;;;;;;2.20;1.20;;;;;;;;;;4977828;28;20470;-83
2021/09/11 13:05:10;;;;;;;3.60;1.60;;;;;;;;;;4962866;28;20428;-83
2021/09/11 13:07:36;;;;;;;2.93;1.50;;;;;;;;;;4976167;28;20495;-81
2021/09/11 13:10:02;;;;;;;1.63;1.00;;;;;;;;;;4961341;28;20439;-85
2021/09/11 13:12:28;;;;;;;2.17;1.20;;;;;;;;;;4960342;28;20439;-83
2021/09/11 13:14:54;;;;;;;1.73;1.20;;;;;;;;;;4963148;28;20432;-80
2021/09/11 13:17:20;;;;;;;2.70;1.10;;;;;;;;;;4963774;29;20710;-80
2021/09/11 13:19:46;;;;;;;1.37;1.27;;;;;;;;;;4959462;29;20846;-82
2021/09/11 13:22:12;;;;;;;1.03;1.00;;;;;;;;;;4963819;28;20505;-80
2021/09/11 13:24:38;;;;;;;2.00;1.17;;;;;;;;;;4962534;28;20426;-80
2021/09/11 13:27:04;;;;;;;1.47;1.03;;;;;;;;;;4965008;28;20431;-82
2021/09/11 13:29:30;;;;;;;1.77;1.17;;;;;;;;;;4967412;28;20805;-79
2021/09/11 13:31:57;;;;;;;4.50;1.50;;;;;;;;;;4963323;28;20433;-81
2021/09/11 13:34:28;;;;;;;1.20;1.00;;;;;;;;;;4964993;28;20919;-81
2021/09/11 13:36:54;;;;;;;2.47;1.23;;;;;;;;;;4966587;28;20447;-82
2021/09/11 13:39:20;;;;;;;1.87;1.10;;;;;;;;;;4963634;28;20475;-82
2021/09/11 13:41:46;;;;;;;3.43;1.17;;;;;;;;;;4966943;28;20409;-82
2021/09/11 13:44:11;;;;;;;2.50;1.00;;;;;;;;;;4966165;28;20426;-83
2021/09/11 13:46:39;;;;;;;1.10;1.00;;;;;;;;;;4981398;28;20442;-83
2021/09/11 13:49:05;;;;;;;3.13;1.33;;;;;;;;;;4964837;28;20455;-82
2021/09/11 13:51:31;;;;;;;2.87;1.40;;;;;;;;;;4979195;28;20438;-80
2021/09/11 13:53:58;;;;;;;1.30;1.20;;;;;;;;;;4981230;28;20449;-82
2021/09/11 13:56:24;;;;;;;2.63;1.50;;;;;;;;;;4981753;28;20476;-82
2021/09/11 13:58:49;;;;;;;2.50;1.27;;;;;;;;;;4963289;28;20461;-82
2021/09/11 14:01:16;;;;;;;1.30;1.20;;;;;;;;;;4965994;28;20468;-83
2021/09/11 14:03:42;;;;;;;1.53;1.10;;;;;;;;;;4969457;28;20433;-82
2021/09/11 14:06:08;;;;;;;1.23;1.13;;;;;;;;;;4961564;28;20465;-81
2021/09/11 14:08:34;;;;;;;2.47;1.20;;;;;;;;;;4967656;28;20456;-82
2021/09/11 14:11:01;;;;;;;1.07;0.97;;;;;;;;;;4965755;28;20399;-79
2021/09/11 14:13:27;;;;;;;2.80;1.57;;;;;;;;;;4964513;28;20472;-80
2021/09/11 14:15:52;;;;;;;0.93;0.90;;;;;;;;;;4962659;28;20481;-79
2021/09/11 14:18:19;;;;;;;1.27;0.80;;;;;;;;;;4956765;28;20453;-80
2021/09/11 14:20:45;;;;;;;1.10;0.80;;;;;;;;;;4962964;28;20434;-80
2021/09/11 14:23:11;;;;;;;2.30;1.07;;;;;;;;;;4967448;28;20421;-82
2021/09/11 14:25:37;;;;;;;2.90;1.40;;;;;;;;;;4963449;28;20452;-82
2021/09/11 14:28:04;;;;;;;2.60;2.27;;;;;;;;;;4962266;28;20830;-83
2021/09/11 14:30:30;;;;;;;1.03;0.83;;;;;;;;;;4960818;28;20815;-80
2021/09/11 14:32:56;;;;;;;1.23;0.93;;;;;;;;;;4961373;28;20436;-81
2021/09/11 14:35:22;;;;;;;1.63;1.30;;;;;;;;;;4958875;28;20461;-79
2021/09/11 14:37:48;;;;;;;1.13;1.03;;;;;;;;;;4980632;28;20524;-79
2021/09/11 14:40:14;;;;;;;1.67;1.03;;;;;;;;;;4962455;28;20935;-81